Time;durP1;ratioP1;P1;durP2;ratioP2;P2;SDS_P1;SDS_P2;PMS_P1;PMS_P2;Temp;Humidity;BMP_temperature;BMP_pressure;BME280_temperature;BME280_humidity;BME280_pressure;Samples;Min_cycle;Max_cycle;Signal;HPM_P1;HPM_P2
2022/10/14 04:00:08;;;;;;;9.75;8.60;;;;;;;;;;6094367;23;20359;31
2022/10/14 04:02:35;;;;;;;9.73;8.73;;;;;;;;;;5016093;22;20432;-78
2022/10/14 04:05:01;;;;;;;10.57;8.68;;;;;;;;;;5011709;28;20396;-78
2022/10/14 04:07:26;;;;;;;10.23;9.25;;;;;;;;;;5012761;28;20389;-78
2022/10/14 04:09:53;;;;;;;11.20;9.73;;;;;;;;;;5013140;28;20405;-78
2022/10/14 04:12:19;;;;;;;10.63;9.37;;;;;;;;;;5012771;28;20392;-78
2022/10/14 04:14:45;;;;;;;10.63;9.52;;;;;;;;;;5012722;28;20373;-78
2022/10/14 04:17:11;;;;;;;13.75;9.68;;;;;;;;;;5012827;28;20412;-78
2022/10/14 04:19:37;;;;;;;10.50;9.40;;;;;;;;;;5012590;28;20468;-78
2022/10/14 04:22:03;;;;;;;10.93;9.77;;;;;;;;;;5011841;28;20730;-79
2022/10/14 04:24:29;;;;;;;11.77;10.15;;;;;;;;;;5011441;28;20416;-79
2022/10/14 04:26:55;;;;;;;11.43;10.30;;;;;;;;;;5011970;28;20754;-79
2022/10/14 04:29:21;;;;;;;12.43;11.15;;;;;;;;;;5012526;28;20383;-79
2022/10/14 04:31:47;;;;;;;11.98;10.90;;;;;;;;;;5011962;28;20381;-80
2022/10/14 04:34:13;;;;;;;12.32;11.05;;;;;;;;;;4995715;28;20382;-80
2022/10/14 04:36:39;;;;;;;15.17;11.33;;;;;;;;;;4997186;28;20382;-79
2022/10/14 04:39:05;;;;;;;12.18;10.77;;;;;;;;;;5012267;28;20377;-79
2022/10/14 04:41:31;;;;;;;13.57;10.50;;;;;;;;;;5003355;28;20394;-79
2022/10/14 04:43:57;;;;;;;12.30;11.00;;;;;;;;;;4996832;28;20494;-79
2022/10/14 04:46:23;;;;;;;11.23;10.20;;;;;;;;;;5012385;28;20392;-79
2022/10/14 04:48:49;;;;;;;11.35;10.25;;;;;;;;;;4994843;28;20389;-80
2022/10/14 04:51:15;;;;;;;12.02;9.63;;;;;;;;;;4995260;28;20402;-79
2022/10/14 04:53:41;;;;;;;10.48;9.48;;;;;;;;;;4993542;28;20386;-81
2022/10/14 04:56:07;;;;;;;10.68;9.77;;;;;;;;;;4999313;28;20408;-80
2022/10/14 04:58:33;;;;;;;10.70;9.70;;;;;;;;;;4999028;28;20408;-79
2022/10/14 05:00:59;;;;;;;12.07;10.90;;;;;;;;;;5028529;28;20392;-80
2022/10/14 05:03:25;;;;;;;12.30;11.18;;;;;;;;;;5016251;28;20440;-79
2022/10/14 05:05:51;;;;;;;11.77;10.60;;;;;;;;;;5018757;28;20454;-79
2022/10/14 05:08:17;;;;;;;11.85;10.63;;;;;;;;;;5016201;28;20385;-79
2022/10/14 05:10:43;;;;;;;11.10;10.02;;;;;;;;;;5016023;28;20420;-79
2022/10/14 05:13:10;;;;;;;11.48;10.38;;;;;;;;;;5010658;28;20480;-79
2022/10/14 05:15:36;;;;;;;13.68;9.70;;;;;;;;;;5007197;28;20385;-78
2022/10/14 05:18:02;;;;;;;11.60;10.07;;;;;;;;;;5012976;28;20400;-79
2022/10/14 05:20:28;;;;;;;10.65;9.70;;;;;;;;;;5004134;28;20512;-80
2022/10/14 05:22:54;;;;;;;11.10;9.95;;;;;;;;;;5011400;28;20401;-79
2022/10/14 05:25:20;;;;;;;12.48;10.20;;;;;;;;;;5015203;28;20735;-79
2022/10/14 05:27:45;;;;;;;11.17;9.63;;;;;;;;;;5015067;28;20392;-79
2022/10/14 05:30:12;;;;;;;11.43;9.50;;;;;;;;;;5015247;28;20908;-79
2022/10/14 05:32:38;;;;;;;10.93;9.77;;;;;;;;;;5015602;28;20857;-79
2022/10/14 05:35:04;;;;;;;10.35;9.35;;;;;;;;;;5015494;28;20396;-79
2022/10/14 05:37:30;;;;;;;11.65;9.27;;;;;;;;;;5015643;28;20403;-79
2022/10/14 05:39:56;;;;;;;10.65;9.40;;;;;;;;;;5015420;28;20868;-79
2022/10/14 05:42:22;;;;;;;9.88;8.88;;;;;;;;;;5009794;28;20387;-79
2022/10/14 05:44:48;;;;;;;10.23;9.13;;;;;;;;;;5008304;28;20390;-79
2022/10/14 05:47:14;;;;;;;10.87;9.83;;;;;;;;;;4998140;28;20464;-79
2022/10/14 05:49:40;;;;;;;13.43;10.27;;;;;;;;;;5011827;28;20789;-79
2022/10/14 05:52:06;;;;;;;9.95;9.05;;;;;;;;;;5013011;28;20396;-79
2022/10/14 05:54:32;;;;;;;11.40;10.05;;;;;;;;;;4997326;28;20529;-79
2022/10/14 05:56:58;;;;;;;12.18;9.27;;;;;;;;;;5009562;28;20874;-79
2022/10/14 05:59:24;;;;;;;12.73;9.63;;;;;;;;;;5014955;28;20400;-79
2022/10/14 06:01:50;;;;;;;11.60;10.05;;;;;;;;;;4997194;28;21004;-79
2022/10/14 06:04:20;;;;;;;10.90;9.80;;;;;;;;;;5014870;28;20500;-79
2022/10/14 06:06:46;;;;;;;11.73;10.20;;;;;;;;;;5014936;28;20391;-80
2022/10/14 06:09:13;;;;;;;11.70;10.27;;;;;;;;;;5014458;28;20392;-80
2022/10/14 06:11:42;;;;;;;11.57;10.50;;;;;;;;;;5014828;28;20417;-80
2022/10/14 06:14:08;;;;;;;13.88;11.30;;;;;;;;;;5015136;28;20381;-79
2022/10/14 06:16:34;;;;;;;12.20;10.85;;;;;;;;;;5010037;28;20394;-79
2022/10/14 06:19:00;;;;;;;11.55;10.32;;;;;;;;;;4995768;28;20382;-79
2022/10/14 06:21:26;;;;;;;12.90;11.57;;;;;;;;;;4996803;28;20503;-79
2022/10/14 06:23:52;;;;;;;12.48;11.18;;;;;;;;;;4995500;28;20418;-79
2022/10/14 06:26:18;;;;;;;13.23;11.93;;;;;;;;;;5000078;28;20377;-79
2022/10/14 06:28:44;;;;;;;14.10;11.68;;;;;;;;;;5000197;28;20405;-80
2022/10/14 06:31:10;;;;;;;12.73;11.40;;;;;;;;;;5012995;28;20376;-79
2022/10/14 06:33:36;;;;;;;12.93;11.63;;;;;;;;;;5011514;28;20385;-79
2022/10/14 06:36:03;;;;;;;12.43;11.10;;;;;;;;;;5007763;28;20378;-79
2022/10/14 06:38:29;;;;;;;13.70;11.98;;;;;;;;;;5011853;28;20929;-79
2022/10/14 06:40:55;;;;;;;13.98;12.43;;;;;;;;;;5013471;28;20393;-79
2022/10/14 06:43:22;;;;;;;13.27;11.73;;;;;;;;;;5013666;28;20619;-79
2022/10/14 06:45:48;;;;;;;14.60;12.10;;;;;;;;;;5010378;28;20381;-81
2022/10/14 06:48:14;;;;;;;13.73;12.32;;;;;;;;;;5012236;28;20750;-78
2022/10/14 06:50:41;;;;;;;14.53;11.63;;;;;;;;;;5012058;28;20396;-78
2022/10/14 06:53:07;;;;;;;16.50;12.40;;;;;;;;;;5013056;28;20380;-80
2022/10/14 06:55:33;;;;;;;14.00;12.10;;;;;;;;;;5010273;28;20391;-79
2022/10/14 06:57:59;;;;;;;15.82;13.52;;;;;;;;;;5016547;28;20440;-79
2022/10/14 07:00:25;;;;;;;15.32;13.93;;;;;;;;;;5013468;28;20727;-78
2022/10/14 07:02:51;;;;;;;17.05;13.38;;;;;;;;;;5013922;28;20413;-79
2022/10/14 07:05:17;;;;;;;14.38;12.73;;;;;;;;;;5013917;28;20413;-79
2022/10/14 07:07:43;;;;;;;15.10;12.73;;;;;;;;;;5013621;28;20753;-80
2022/10/14 07:10:09;;;;;;;15.35;12.73;;;;;;;;;;5013521;28;20381;-80
2022/10/14 07:12:35;;;;;;;13.88;12.35;;;;;;;;;;5013732;28;20854;-80
2022/10/14 07:15:01;;;;;;;15.02;13.48;;;;;;;;;;5014248;28;20385;-80
2022/10/14 07:17:27;;;;;;;15.95;13.30;;;;;;;;;;5010645;28;20431;-81
2022/10/14 07:19:53;;;;;;;14.50;12.90;;;;;;;;;;5012741;28;20381;-81
2022/10/14 07:22:19;;;;;;;15.03;12.97;;;;;;;;;;5013500;28;20381;-81
2022/10/14 07:24:45;;;;;;;16.58;12.88;;;;;;;;;;5008779;28;20862;-81
2022/10/14 07:27:11;;;;;;;14.65;13.18;;;;;;;;;;5012464;28;20388;-81
2022/10/14 07:29:37;;;;;;;14.57;13.10;;;;;;;;;;5012972;28;20377;-81
2022/10/14 07:32:03;;;;;;;15.50;13.87;;;;;;;;;;5013521;28;20475;-81
2022/10/14 07:34:30;;;;;;;15.32;13.75;;;;;;;;;;5004086;28;20390;-81
2022/10/14 07:36:56;;;;;;;15.15;13.55;;;;;;;;;;5012054;28;20416;-81
2022/10/14 07:39:22;;;;;;;14.43;13.00;;;;;;;;;;5013286;28;20854;-81
2022/10/14 07:41:48;;;;;;;16.55;13.75;;;;;;;;;;5013327;28;20393;-81
2022/10/14 07:44:15;;;;;;;17.50;14.00;;;;;;;;;;5013415;28;20411;-81
2022/10/14 07:46:42;;;;;;;16.15;14.40;;;;;;;;;;5013320;28;20881;-81
2022/10/14 07:49:11;;;;;;;16.58;14.02;;;;;;;;;;5013373;28;20850;-81
2022/10/14 07:51:38;;;;;;;18.48;14.57;;;;;;;;;;5013213;28;20850;-81
2022/10/14 07:54:08;;;;;;;15.50;14.00;;;;;;;;;;5013171;28;20389;-81
2022/10/14 07:56:34;;;;;;;15.68;14.05;;;;;;;;;;4995395;28;20821;-81
2022/10/14 07:59:00;;;;;;;21.02;15.98;;;;;;;;;;5003605;28;20750;-81
2022/10/14 08:01:26;;;;;;;16.85;14.48;;;;;;;;;;5013019;28;20750;-81
2022/10/14 08:03:52;;;;;;;17.43;15.53;;;;;;;;;;5013114;28;21023;-79
2022/10/14 08:06:18;;;;;;;16.15;14.15;;;;;;;;;;5013081;28;20384;-78
2022/10/14 08:08:44;;;;;;;16.83;14.98;;;;;;;;;;5013015;28;20507;-79
2022/10/14 08:11:12;;;;;;;15.95;14.25;;;;;;;;;;5013143;28;20742;-81
2022/10/14 08:13:39;;;;;;;16.53;14.70;;;;;;;;;;5012951;28;20420;-81
2022/10/14 08:16:16;;;;;;;17.73;14.68;;;;;;;;;;5012765;28;20385;-81
2022/10/14 08:18:42;;;;;;;18.42;16.10;;;;;;;;;;5000249;28;20394;-81
2022/10/14 08:21:08;;;;;;;17.85;16.05;;;;;;;;;;4994601;28;20464;-81
2022/10/14 08:23:34;;;;;;;21.25;17.70;;;;;;;;;;5000028;28;20889;-81
2022/10/14 08:26:00;;;;;;;20.73;17.60;;;;;;;;;;5012815;28;20456;-81
2022/10/14 08:28:26;;;;;;;21.85;18.70;;;;;;;;;;4995065;28;20743;-81
2022/10/14 08:30:52;;;;;;;22.15;19.00;;;;;;;;;;4994650;28;20392;-81
2022/10/14 08:33:18;;;;;;;23.80;18.38;;;;;;;;;;5012371;28;20392;-81
2022/10/14 08:35:44;;;;;;;22.20;18.15;;;;;;;;;;5006627;28;20858;-81
2022/10/14 08:38:10;;;;;;;23.88;18.98;;;;;;;;;;5012383;28;20385;-81
2022/10/14 08:40:53;;;;;;;23.75;19.85;;;;;;;;;;5012475;28;20389;-78
2022/10/14 08:43:25;;;;;;;22.77;19.87;;;;;;;;;;5012767;28;20455;-81
2022/10/14 08:45:54;;;;;;;24.85;20.40;;;;;;;;;;5010024;28;20766;-79
2022/10/14 08:48:22;;;;;;;22.97;18.73;;;;;;;;;;5012581;28;20452;-79
2022/10/14 08:51:02;;;;;;;25.92;19.52;;;;;;;;;;5012537;28;20381;-79
2022/10/14 08:53:39;;;;;;;19.67;17.60;;;;;;;;;;5012408;28;20380;-81
2022/10/14 08:56:07;;;;;;;23.88;18.90;;;;;;;;;;4994721;28;20767;-81
2022/10/14 08:58:53;;;;;;;21.85;17.83;;;;;;;;;;5012258;28;20377;-81
2022/10/14 09:01:33;;;;;;;21.10;18.77;;;;;;;;;;4997090;28;20535;-81
2022/10/14 09:04:01;;;;;;;21.25;18.75;;;;;;;;;;5012127;28;20488;-81
2022/10/14 09:06:29;;;;;;;18.30;16.40;;;;;;;;;;5012281;28;20392;-81
2022/10/14 09:09:18;;;;;;;15.57;14.05;;;;;;;;;;5011161;28;20385;-80
2022/10/14 09:11:47;;;;;;;15.25;13.65;;;;;;;;;;5002484;28;20392;-80
2022/10/14 09:14:17;;;;;;;15.23;13.73;;;;;;;;;;5012249;28;20392;-80
2022/10/14 09:16:45;;;;;;;15.35;13.85;;;;;;;;;;5012471;28;20381;-79
2022/10/14 09:19:11;;;;;;;14.60;13.00;;;;;;;;;;5012330;28;20789;-80
2022/10/14 09:21:49;;;;;;;14.82;13.32;;;;;;;;;;5012130;28;20384;-80
2022/10/14 09:24:17;;;;;;;12.32;11.13;;;;;;;;;;5012040;28;20463;-80
2022/10/14 09:26:45;;;;;;;13.87;12.57;;;;;;;;;;5012057;28;20391;-80
2022/10/14 09:29:20;;;;;;;13.75;12.40;;;;;;;;;;5012111;28;20407;-80
2022/10/14 09:31:46;;;;;;;15.48;12.50;;;;;;;;;;5012008;28;20384;-80
2022/10/14 09:34:20;;;;;;;14.85;13.23;;;;;;;;;;5012111;28;20396;-81
2022/10/14 09:36:47;;;;;;;14.18;12.68;;;;;;;;;;5012142;28;20886;-81
2022/10/14 09:39:14;;;;;;;12.57;11.48;;;;;;;;;;4994453;28;20956;-80
2022/10/14 09:41:40;;;;;;;13.45;11.98;;;;;;;;;;5011819;28;20897;-80
2022/10/14 09:44:17;;;;;;;13.50;12.18;;;;;;;;;;5014818;28;20405;-80
2022/10/14 09:46:46;;;;;;;13.40;12.00;;;;;;;;;;5015845;28;20377;-80
2022/10/14 09:49:16;;;;;;;11.77;10.70;;;;;;;;;;5014338;28;20377;-81
2022/10/14 09:51:43;;;;;;;10.98;10.00;;;;;;;;;;5013294;28;20413;-81
2022/10/14 09:54:18;;;;;;;11.02;9.88;;;;;;;;;;5015472;28;20377;-81
2022/10/14 09:56:46;;;;;;;11.27;10.10;;;;;;;;;;5015299;28;20746;-81
2022/10/14 09:59:18;;;;;;;11.70;10.52;;;;;;;;;;5015240;28;20384;-81
2022/10/14 10:01:55;;;;;;;12.95;11.13;;;;;;;;;;5015023;28;20401;-80
2022/10/14 10:04:24;;;;;;;12.77;11.38;;;;;;;;;;5015271;28;20809;-79
2022/10/14 10:06:53;;;;;;;11.30;10.17;;;;;;;;;;5015262;28;20417;-80
2022/10/14 10:09:20;;;;;;;10.20;9.30;;;;;;;;;;5014988;28;20452;-80
2022/10/14 10:11:46;;;;;;;9.05;8.10;;;;;;;;;;5014640;28;20392;-81
2022/10/14 10:14:26;;;;;;;8.30;7.07;;;;;;;;;;5015082;28;20475;-80
2022/10/14 10:17:11;;;;;;;11.40;8.27;;;;;;;;;;4997364;28;20738;-81
2022/10/14 10:19:44;;;;;;;8.13;7.38;;;;;;;;;;5014862;28;20384;-80
2022/10/14 10:22:16;;;;;;;7.97;6.20;;;;;;;;;;5015073;28;20385;-81
2022/10/14 10:24:46;;;;;;;7.57;6.78;;;;;;;;;;5015303;28;20488;-81
2022/10/14 10:27:24;;;;;;;7.47;6.75;;;;;;;;;;5014777;28;20413;-81
2022/10/14 10:29:50;;;;;;;7.28;5.00;;;;;;;;;;5014592;28;20464;-81
2022/10/14 10:32:27;;;;;;;5.47;4.97;;;;;;;;;;5014758;28;20943;-81
2022/10/14 10:35:03;;;;;;;5.60;5.10;;;;;;;;;;5014638;28;20854;-81
2022/10/14 10:37:37;;;;;;;6.47;5.20;;;;;;;;;;5014949;28;20742;-81
2022/10/14 10:40:10;;;;;;;5.17;4.60;;;;;;;;;;5006517;28;20487;-81
2022/10/14 10:42:59;;;;;;;5.35;4.85;;;;;;;;;;5014362;28;20404;-81
2022/10/14 10:45:32;;;;;;;6.85;5.18;;;;;;;;;;5014906;28;20381;-81
2022/10/14 10:48:06;;;;;;;5.53;4.95;;;;;;;;;;5014523;28;20380;-81
2022/10/14 10:50:43;;;;;;;5.05;4.65;;;;;;;;;;5014289;28;20853;-81
2022/10/14 10:53:15;;;;;;;5.47;4.97;;;;;;;;;;5014786;28;20471;-81
2022/10/14 10:56:00;;;;;;;5.80;5.25;;;;;;;;;;5013252;28;20384;-81
2022/10/14 10:58:44;;;;;;;6.63;5.20;;;;;;;;;;5007955;28;20851;-81
2022/10/14 11:01:15;;;;;;;4.90;4.50;;;;;;;;;;5013902;28;20454;-81
2022/10/14 11:03:53;;;;;;;5.38;4.93;;;;;;;;;;5016499;28;20405;-81
2022/10/14 11:12:01;;;;;;;5.70;5.25;;;;;;;;;;5014190;28;20381;-81
2022/10/14 11:12:16;;;;;;;6.07;4.95;;;;;;;;;;5014098;28;20431;-81
2022/10/14 11:14:45;;;;;;;8.73;6.15;;;;;;;;;;5013911;28;20870;-81
2022/10/14 11:17:29;;;;;;;6.20;5.60;;;;;;;;;;5013839;28;20408;-81
2022/10/14 11:19:57;;;;;;;6.50;5.90;;;;;;;;;;5013754;28;20381;-81
2022/10/14 11:22:27;;;;;;;6.78;6.15;;;;;;;;;;5013415;28;20389;-81
2022/10/14 11:24:57;;;;;;;6.70;6.20;;;;;;;;;;5013816;28;20758;-81
2022/10/14 11:27:27;;;;;;;6.22;5.63;;;;;;;;;;5013690;28;20420;-81
2022/10/14 11:29:53;;;;;;;6.40;5.90;;;;;;;;;;5013680;28;20419;-81
2022/10/14 11:32:22;;;;;;;8.70;6.97;;;;;;;;;;5013508;28;20877;-81
2022/10/14 11:34:51;;;;;;;7.53;6.53;;;;;;;;;;5012454;28;20745;-81
2022/10/14 11:37:27;;;;;;;7.05;6.35;;;;;;;;;;5013186;28;20408;-81
2022/10/14 11:40:08;;;;;;;6.72;5.80;;;;;;;;;;5002942;28;20410;-81
2022/10/14 11:42:37;;;;;;;6.20;5.68;;;;;;;;;;5010223;28;20376;-81
2022/10/14 11:45:15;;;;;;;6.50;5.90;;;;;;;;;;5011576;28;20373;-81
2022/10/14 11:47:43;;;;;;;6.60;5.63;;;;;;;;;;5012032;28;20385;-81
2022/10/14 11:50:24;;;;;;;6.95;6.05;;;;;;;;;;5009235;28;20415;-82
2022/10/14 11:53:00;;;;;;;5.97;5.15;;;;;;;;;;5001634;28;20406;-82
2022/10/14 11:55:29;;;;;;;6.13;5.53;;;;;;;;;;5006025;28;20498;-81
2022/10/14 11:57:58;;;;;;;5.60;5.00;;;;;;;;;;5002669;28;20489;-82
2022/10/14 12:00:27;;;;;;;5.50;5.00;;;;;;;;;;5008965;28;20462;-82
2022/10/14 12:03:01;;;;;;;5.90;4.85;;;;;;;;;;5011657;28;20412;-82
2022/10/14 12:05:44;;;;;;;5.68;4.80;;;;;;;;;;5003842;28;20399;-82
2022/10/14 12:08:15;;;;;;;5.43;5.00;;;;;;;;;;4996514;28;20759;-82
2022/10/14 12:11:01;;;;;;;5.80;5.18;;;;;;;;;;4994755;28;20417;-82
2022/10/14 12:13:48;;;;;;;5.53;5.03;;;;;;;;;;5005705;28;20399;-82
2022/10/14 12:16:16;;;;;;;8.25;5.50;;;;;;;;;;4998074;28;20377;-82
2022/10/14 12:18:43;;;;;;;7.88;5.25;;;;;;;;;;5012439;28;20385;-81
2022/10/14 12:21:21;;;;;;;5.70;5.17;;;;;;;;;;5012630;28;20419;-82
2022/10/14 12:23:49;;;;;;;7.60;5.78;;;;;;;;;;5012605;28;20882;-82
2022/10/14 12:26:24;;;;;;;5.63;5.07;;;;;;;;;;5012747;28;20897;-82
2022/10/14 12:28:51;;;;;;;5.10;4.70;;;;;;;;;;5012813;28;20396;-81
2022/10/14 12:31:36;;;;;;;5.93;5.30;;;;;;;;;;5012840;28;20783;-81
2022/10/14 12:34:13;;;;;;;5.90;5.35;;;;;;;;;;5012426;28;20388;-82
2022/10/14 12:36:42;;;;;;;6.68;5.47;;;;;;;;;;5012422;28;20406;-81
2022/10/14 12:39:16;;;;;;;6.50;4.83;;;;;;;;;;5012719;28;20439;-82
2022/10/14 12:41:54;;;;;;;5.50;5.00;;;;;;;;;;5012322;28;20391;-81
2022/10/14 12:44:22;;;;;;;6.13;4.70;;;;;;;;;;5012439;28;20411;-82
2022/10/14 12:46:49;;;;;;;5.22;4.72;;;;;;;;;;5012323;28;20377;-82
2022/10/14 12:49:36;;;;;;;5.40;4.90;;;;;;;;;;5008020;28;20938;-82
2022/10/14 12:52:04;;;;;;;5.47;4.70;;;;;;;;;;5012200;28;20392;-82
2022/10/14 12:54:31;;;;;;;4.88;4.47;;;;;;;;;;5012602;28;20391;-82
2022/10/14 12:57:00;;;;;;;4.57;3.97;;;;;;;;;;5012148;28;20745;-82
2022/10/14 12:59:30;;;;;;;4.60;4.07;;;;;;;;;;5012551;28;20384;-82
2022/10/14 13:01:57;;;;;;;5.43;4.93;;;;;;;;;;5012051;28;20409;-81
2022/10/14 13:04:23;;;;;;;4.38;4.00;;;;;;;;;;5011843;28;20952;-81
2022/10/14 13:07:08;;;;;;;5.50;4.95;;;;;;;;;;5012578;28;20928;-81
2022/10/14 13:09:35;;;;;;;7.10;6.40;;;;;;;;;;5012394;28;20723;-82
2022/10/14 13:12:00;;;;;;;7.95;7.25;;;;;;;;;;5012004;28;20850;-82
2022/10/14 13:14:34;;;;;;;6.93;6.22;;;;;;;;;;5013783;28;20471;-81
2022/10/14 13:17:03;;;;;;;5.60;5.07;;;;;;;;;;5012465;28;20885;-82
2022/10/14 13:19:32;;;;;;;5.45;4.93;;;;;;;;;;5015085;28;20471;-82
2022/10/14 13:22:02;;;;;;;6.00;5.40;;;;;;;;;;5013677;28;20381;-82
2022/10/14 13:24:29;;;;;;;6.00;5.50;;;;;;;;;;5016226;28;20523;-82
2022/10/14 13:26:55;;;;;;;6.15;5.65;;;;;;;;;;5015968;28;20409;-82
2022/10/14 13:29:21;;;;;;;10.40;5.38;;;;;;;;;;5015906;28;20404;-82
2022/10/14 13:32:06;;;;;;;5.65;4.72;;;;;;;;;;5015690;28;20444;-82
2022/10/14 13:34:38;;;;;;;5.50;4.63;;;;;;;;;;5015757;28;20456;-82
2022/10/14 13:37:13;;;;;;;5.47;4.82;;;;;;;;;;5015436;28;20387;-82
2022/10/14 13:39:39;;;;;;;5.82;5.22;;;;;;;;;;5014367;28;20785;-82
2022/10/14 13:42:05;;;;;;;5.78;4.95;;;;;;;;;;5012780;28;20381;-82
2022/10/14 13:44:32;;;;;;;7.60;4.87;;;;;;;;;;5012877;28;20818;-82
2022/10/14 13:47:00;;;;;;;8.10;5.00;;;;;;;;;;5014428;28;20392;-82
2022/10/14 13:49:39;;;;;;;6.55;5.95;;;;;;;;;;5014699;28;20460;-82
2022/10/14 13:52:09;;;;;;;5.68;5.18;;;;;;;;;;5015403;28;20463;-82
2022/10/14 13:54:35;;;;;;;5.53;5.13;;;;;;;;;;5016144;28;20381;-82
2022/10/14 13:57:12;;;;;;;5.75;4.70;;;;;;;;;;5015340;28;20404;-82
2022/10/14 13:59:47;;;;;;;5.20;4.80;;;;;;;;;;5015365;28;20850;-82
2022/10/14 14:02:20;;;;;;;5.10;4.55;;;;;;;;;;5014995;28;20893;-82
2022/10/14 14:04:58;;;;;;;5.20;4.70;;;;;;;;;;5015135;28;20809;-82
2022/10/14 14:07:27;;;;;;;6.00;4.68;;;;;;;;;;5014812;28;20389;-82
2022/10/14 14:09:56;;;;;;;5.63;4.60;;;;;;;;;;5015235;28;20588;-82
2022/10/14 14:12:22;;;;;;;4.60;4.25;;;;;;;;;;5015020;28;20393;-82
2022/10/14 14:14:50;;;;;;;5.85;4.32;;;;;;;;;;5015017;28;20396;-81
2022/10/14 14:17:17;;;;;;;5.63;4.38;;;;;;;;;;5014987;28;20416;-82
2022/10/14 14:19:45;;;;;;;6.30;4.10;;;;;;;;;;5014963;28;20424;-81
2022/10/14 14:22:11;;;;;;;5.63;4.32;;;;;;;;;;5014828;28;20813;-82
2022/10/14 14:24:37;;;;;;;5.95;4.30;;;;;;;;;;5014730;28;20451;-82
2022/10/14 14:27:03;;;;;;;6.87;5.00;;;;;;;;;;5014870;28;20430;-82
2022/10/14 14:29:31;;;;;;;4.90;4.50;;;;;;;;;;5014782;28;20383;-82
2022/10/14 14:31:58;;;;;;;6.82;4.75;;;;;;;;;;5014599;28;20862;-82
2022/10/14 14:34:24;;;;;;;5.32;4.82;;;;;;;;;;5014636;28;20396;-82
2022/10/14 14:36:50;;;;;;;4.50;4.00;;;;;;;;;;5014846;28;20381;-82
2022/10/14 14:39:24;;;;;;;5.38;4.90;;;;;;;;;;5013607;28;20473;-82
2022/10/14 14:41:51;;;;;;;6.70;6.10;;;;;;;;;;5011875;28;20385;-82
2022/10/14 14:44:19;;;;;;;10.23;8.80;;;;;;;;;;5013805;28;20485;-82
2022/10/14 14:46:46;;;;;;;9.25;7.25;;;;;;;;;;5014437;28;20451;-81
2022/10/14 14:49:15;;;;;;;11.45;7.53;;;;;;;;;;5014727;28;20381;-82
2022/10/14 14:51:41;;;;;;;7.70;7.00;;;;;;;;;;5014211;28;20412;-82
2022/10/14 14:54:07;;;;;;;8.65;7.75;;;;;;;;;;5014262;28;20373;-82
2022/10/14 14:56:33;;;;;;;8.68;7.28;;;;;;;;;;5014194;28;20888;-82
2022/10/14 14:59:17;;;;;;;7.68;6.63;;;;;;;;;;5014231;28;20456;-82
2022/10/14 15:01:43;;;;;;;6.80;6.07;;;;;;;;;;5013662;28;20463;-82
2022/10/14 15:04:28;;;;;;;6.90;6.30;;;;;;;;;;5013041;28;20412;-82
2022/10/14 15:06:59;;;;;;;6.28;5.72;;;;;;;;;;5013375;28;20385;-82
2022/10/14 15:09:45;;;;;;;5.60;5.10;;;;;;;;;;5013117;28;20373;-82
2022/10/14 15:12:15;;;;;;;6.95;6.13;;;;;;;;;;5024558;28;20852;-82
2022/10/14 15:14:44;;;;;;;5.85;3.50;;;;;;;;;;5015508;28;20385;-82
2022/10/14 15:17:30;;;;;;;4.95;3.33;;;;;;;;;;5013060;28;20479;-82
2022/10/14 15:19:58;;;;;;;4.30;2.90;;;;;;;;;;5013145;28;20513;-82
2022/10/14 15:22:45;;;;;;;1.50;1.40;;;;;;;;;;5013771;28;20380;-82
2022/10/14 15:25:24;;;;;;;2.22;1.60;;;;;;;;;;5013215;28;20455;-82
2022/10/14 15:27:54;;;;;;;2.40;1.50;;;;;;;;;;5013081;28;20373;-82
2022/10/14 15:30:26;;;;;;;2.60;2.40;;;;;;;;;;5012935;28;20373;-82
2022/10/14 15:32:52;;;;;;;2.53;2.33;;;;;;;;;;5013055;28;20916;-82
2022/10/14 15:35:19;;;;;;;2.60;2.37;;;;;;;;;;5009274;28;20401;-82
2022/10/14 15:37:46;;;;;;;2.83;2.38;;;;;;;;;;5009074;28;20819;-82
2022/10/14 15:40:20;;;;;;;2.58;2.38;;;;;;;;;;5009795;28;20412;-83
2022/10/14 15:42:46;;;;;;;2.50;2.30;;;;;;;;;;5010313;28;20392;-83
2022/10/14 15:45:12;;;;;;;3.72;2.10;;;;;;;;;;5009725;28;20376;-83
2022/10/14 15:47:39;;;;;;;3.25;2.80;;;;;;;;;;5011947;28;20392;-82
2022/10/14 15:50:06;;;;;;;2.60;2.40;;;;;;;;;;5011616;28;20464;-83
2022/10/14 15:52:32;;;;;;;2.90;2.60;;;;;;;;;;4994243;28;20761;-83
2022/10/14 15:54:59;;;;;;;4.13;3.83;;;;;;;;;;5008657;28;20400;-83
2022/10/14 15:57:25;;;;;;;5.65;4.00;;;;;;;;;;5009571;28;20861;-82
2022/10/14 15:59:52;;;;;;;4.25;3.47;;;;;;;;;;5010775;28;20385;-83
2022/10/14 16:02:19;;;;;;;4.13;3.83;;;;;;;;;;4948633;28;1787579;-82
2022/10/14 16:04:45;;;;;;;4.20;3.80;;;;;;;;;;5011818;28;20405;-83
2022/10/14 16:07:14;;;;;;;4.60;4.20;;;;;;;;;;5012824;28;20459;-82
2022/10/14 16:09:40;;;;;;;4.40;4.00;;;;;;;;;;4993102;28;20400;-81
2022/10/14 16:12:13;;;;;;;4.40;4.00;;;;;;;;;;4992484;28;20386;-81
2022/10/14 16:14:39;;;;;;;3.85;3.55;;;;;;;;;;4994574;28;20377;-81
2022/10/14 16:17:05;;;;;;;4.22;3.92;;;;;;;;;;4997683;28;20918;-82
2022/10/14 16:19:31;;;;;;;4.47;4.10;;;;;;;;;;5001699;28;20395;-82
2022/10/14 16:21:57;;;;;;;4.22;3.92;;;;;;;;;;4991988;28;20398;-82
2022/10/14 16:24:26;;;;;;;5.10;4.68;;;;;;;;;;4994504;28;20414;-82
2022/10/14 16:26:53;;;;;;;3.70;3.40;;;;;;;;;;5001081;28;20442;-82
2022/10/14 16:29:20;;;;;;;3.65;3.35;;;;;;;;;;5012728;28;20870;-82
2022/10/14 16:31:48;;;;;;;4.28;3.10;;;;;;;;;;5012670;28;20889;-81
2022/10/14 16:34:14;;;;;;;4.53;3.23;;;;;;;;;;4998910;28;20398;-83
2022/10/14 16:36:41;;;;;;;3.45;3.15;;;;;;;;;;4995405;28;20465;-83
2022/10/14 16:39:08;;;;;;;5.82;5.07;;;;;;;;;;5001086;28;20389;-83
2022/10/14 16:41:34;;;;;;;4.53;4.13;;;;;;;;;;5012427;28;20385;-83
2022/10/14 16:44:00;;;;;;;3.97;3.58;;;;;;;;;;5012619;28;20404;-82
2022/10/14 16:49:13;;;;;;;4.45;3.67;;;;;;;;;;5000343;28;20881;-82
2022/10/14 16:51:39;;;;;;;3.70;3.40;;;;;;;;;;5012254;28;20750;-82
2022/10/14 16:54:05;;;;;;;3.58;2.70;;;;;;;;;;5011995;28;20384;-82
2022/10/14 16:59:15;;;;;;;3.40;2.40;;;;;;;;;;4998788;28;20441;-81
2022/10/14 17:01:41;;;;;;;2.65;1.90;;;;;;;;;;5012143;28;20851;-81
2022/10/14 17:04:08;;;;;;;2.42;2.22;;;;;;;;;;5012319;28;20404;-81
2022/10/14 17:06:34;;;;;;;2.33;2.13;;;;;;;;;;5012386;28;20373;-82
2022/10/14 17:09:00;;;;;;;2.50;2.30;;;;;;;;;;5011953;28;20373;-80
2022/10/14 17:11:27;;;;;;;3.17;2.47;;;;;;;;;;5011244;28;20941;-80
2022/10/14 17:13:54;;;;;;;3.05;2.45;;;;;;;;;;5012455;28;20476;-79
2022/10/14 17:16:20;;;;;;;3.72;3.30;;;;;;;;;;5012058;28;20384;-82
2022/10/14 17:18:46;;;;;;;3.30;3.00;;;;;;;;;;5012788;28;20442;-82
2022/10/14 17:21:12;;;;;;;3.95;3.55;;;;;;;;;;4996756;28;20389;-83
2022/10/14 17:23:42;;;;;;;4.28;3.60;;;;;;;;;;5012202;28;20878;-83
2022/10/14 17:26:13;;;;;;;4.13;3.70;;;;;;;;;;5012318;28;20396;-83
2022/10/14 17:28:39;;;;;;;3.95;3.35;;;;;;;;;;5011944;28;20384;-83
2022/10/14 17:31:10;;;;;;;3.17;2.90;;;;;;;;;;5001982;28;20400;-83
2022/10/14 17:33:36;;;;;;;4.05;3.03;;;;;;;;;;5006459;28;20381;-83
2022/10/14 17:36:05;;;;;;;2.97;2.58;;;;;;;;;;5012149;28;20452;-83
2022/10/14 17:38:31;;;;;;;3.05;2.70;;;;;;;;;;5011898;28;20395;-83
2022/10/14 17:41:15;;;;;;;3.20;2.93;;;;;;;;;;4992498;28;20897;-83
2022/10/14 17:43:41;;;;;;;3.17;2.88;;;;;;;;;;4995759;28;20986;-82
2022/10/14 17:46:10;;;;;;;2.70;2.50;;;;;;;;;;5002389;28;20436;-83
2022/10/14 17:48:37;;;;;;;3.22;2.83;;;;;;;;;;5010963;28;20381;-83
2022/10/14 17:51:03;;;;;;;4.32;3.00;;;;;;;;;;5012043;28;20443;-83
2022/10/14 17:53:29;;;;;;;4.60;2.80;;;;;;;;;;5011169;28;20393;-82
2022/10/14 17:55:58;;;;;;;2.70;2.50;;;;;;;;;;5011782;28;20395;-83
2022/10/14 17:58:24;;;;;;;2.70;2.50;;;;;;;;;;5011529;28;20381;-83
2022/10/14 18:00:50;;;;;;;3.75;2.90;;;;;;;;;;5009535;28;20463;-83
2022/10/14 18:03:17;;;;;;;4.07;3.57;;;;;;;;;;4993728;28;20418;-82
2022/10/14 18:05:44;;;;;;;3.75;3.00;;;;;;;;;;4997928;28;20442;-80
2022/10/14 18:08:11;;;;;;;4.30;3.90;;;;;;;;;;5005648;28;20884;-84
2022/10/14 18:10:37;;;;;;;4.25;3.90;;;;;;;;;;4997496;28;20421;-84
2022/10/14 18:13:03;;;;;;;5.78;5.28;;;;;;;;;;4995653;28;20418;-84
2022/10/14 18:15:30;;;;;;;5.40;4.70;;;;;;;;;;4996022;28;20395;-84
2022/10/14 18:17:56;;;;;;;3.80;3.50;;;;;;;;;;4996308;28;20378;-84
2022/10/14 18:20:22;;;;;;;3.63;3.30;;;;;;;;;;4996809;28;20391;-84
2022/10/14 18:22:50;;;;;;;3.55;3.25;;;;;;;;;;4996498;28;20383;-84
2022/10/14 18:25:16;;;;;;;3.78;3.40;;;;;;;;;;5001825;28;20376;-81
2022/10/14 18:27:42;;;;;;;6.00;4.03;;;;;;;;;;5014936;28;20957;-83
2022/10/14 18:30:09;;;;;;;4.95;4.07;;;;;;;;;;5014301;28;20373;-81
2022/10/14 18:32:35;;;;;;;5.30;4.38;;;;;;;;;;5014506;28;20468;-82
2022/10/14 18:35:02;;;;;;;5.10;4.60;;;;;;;;;;5014783;28;20464;-82
2022/10/14 18:37:28;;;;;;;6.72;3.97;;;;;;;;;;5014585;28;20385;-82
2022/10/14 18:39:54;;;;;;;6.47;5.20;;;;;;;;;;5012516;28;20888;-82
2022/10/14 18:42:20;;;;;;;5.33;4.63;;;;;;;;;;4996955;28;20510;-82
2022/10/14 18:44:46;;;;;;;7.18;4.25;;;;;;;;;;5009763;28;20418;-83
2022/10/14 18:47:12;;;;;;;4.45;3.95;;;;;;;;;;5013217;28;20793;-83
2022/10/14 18:49:37;;;;;;;4.10;3.70;;;;;;;;;;5013347;28;20381;-84
2022/10/14 18:52:03;;;;;;;5.50;4.05;;;;;;;;;;4996128;28;20421;-83